Weather at Lund Hospital Heliport

Public forecast

Using degrees Celsius for public forecast. Weather courtesy of forecast.io.

Closest aviation weather report (METAR) to Lund Hospital Heliport

Closest report is Malmö Sturup Airport, 11.1 nm (20.6 km) SSE.

2024/05/21 01:20 (retrieved 13 minutes ago)

ESMS 210120Z 07010KT CAVOK 12/06 Q1017

Closest aviation forecast (TAF) to Lund Hospital Heliport

Closest forecast is Dortmund Airport, 320.7 nm (593.9 km) SW.

2024/05/20 21:39 (retrieved 4 hours ago)

TAF EDLW 202130Z 2021/2118 CNL